KBCE

Details ICAO KBCE (BCE)
Name BRYCE CANYON
Region United States
Timezone America/Denver (UTC-7.0)
Plans Departing 5
Arriving 10
Stats Elevation 7,590 ft / 2,313 m (AMSL)
Location 37.706370° -112.145471°
Runways 1
Magnetic Variation 11.018° E
Sunrise 2017-12-14 14:37:31 UTC / 2017-12-14 07:37:31 Local
Sunset 2017-12-15 00:12:06 UTC / 2017-12-14 17:12:06 Local
Advertisement - Login to hide

Runways

ID Width Length Bearing (true) Bearing (mag) Surface Threshold Offset Overrun Length
03 75 ft / 23 m 7,399 ft / 2,255 m 46.37° 35.35° Asphalt 0 ft / 0 m 0 ft / 0 m
21 75 ft / 23 m 7,399 ft / 2,255 m 226.38° 215.36° Asphalt 0 ft / 0 m 0 ft / 0 m

Map

Weather


0- 5 10 15 20 25 30 35+ Temperature / ° C

Clouds and Precipitation
Forecast for 2017-12-15 00:00 UTC. Updated an hour ago

Ground ~20,000 ft ~40,000 ft Winds

METAR

KBCE 142353Z AUTO VRB04KT 10SM CLR 03/M11 A3031 RMK AO2 SLPNO T00331111 53009

TAF

KBCE 142324Z 1500/1524 01008KT P6SM SKC FM150200 30007KT P6SM SCT200

Frequencies

Recorded 135.47 MHz ASOS
Unicom 122.80 MHz CTAF/UNICOM
Warning: Do not use this data for real-world aviation or navigation. No guarantee of current accuracy is given.